createdAt,value
2024-05-09T00:00:56.618Z,9.51
2024-05-09T00:05:58.903Z,9.49
2024-05-09T00:11:01.805Z,9.39
2024-05-09T00:16:05.315Z,9.34
2024-05-09T00:21:09.394Z,9.24
2024-05-09T00:26:17.614Z,9.15
2024-05-09T00:31:19.702Z,9.18
2024-05-09T00:36:21.764Z,9.16
2024-05-09T00:41:23.827Z,9.05
2024-05-09T00:46:26.374Z,9.00
2024-05-09T00:51:28.517Z,8.93
2024-05-09T00:56:30.583Z,8.90
2024-05-09T01:01:32.972Z,8.87
2024-05-09T01:06:35.060Z,8.78
2024-05-09T01:11:39.232Z,8.72
2024-05-09T01:16:41.942Z,8.75
2024-05-09T01:21:44.291Z,8.67
2024-05-09T01:26:46.307Z,8.56
2024-05-09T01:31:48.659Z,8.50
2024-05-09T01:36:50.728Z,8.15
2024-05-09T01:41:52.788Z,8.15
2024-05-09T01:46:54.793Z,8.10
2024-05-09T01:51:56.788Z,8.21
2024-05-09T01:56:58.775Z,8.20
2024-05-09T02:02:01.045Z,8.05
2024-05-09T02:07:03.367Z,7.90
2024-05-09T02:12:06.058Z,7.77
2024-05-09T02:17:08.395Z,7.72
2024-05-09T02:22:10.444Z,7.63
2024-05-09T02:27:12.509Z,7.56
2024-05-09T02:32:14.794Z,7.58
2024-05-09T02:37:17.057Z,7.56
2024-05-09T02:42:19.135Z,7.40
2024-05-09T02:47:21.419Z,7.35
2024-05-09T02:52:23.586Z,7.30
2024-05-09T02:57:25.581Z,7.20
2024-05-09T03:02:30.842Z,7.15
2024-05-09T03:07:33.099Z,7.06
2024-05-09T03:12:39.053Z,7.02
2024-05-09T03:17:44.636Z,7.01
2024-05-09T03:22:47.022Z,6.87
2024-05-09T03:27:53.459Z,6.78
2024-05-09T03:32:58.160Z,6.75
2024-05-09T03:38:00.728Z,6.57
2024-05-09T03:43:02.993Z,6.56
2024-05-09T03:48:06.360Z,6.50
2024-05-09T03:53:23.032Z,6.48
2024-05-09T03:58:27.755Z,6.40
2024-05-09T04:03:30.382Z,6.38
2024-05-09T04:08:33.028Z,6.25
2024-05-09T04:13:40.535Z,6.33
2024-05-09T04:18:42.832Z,6.38
2024-05-09T04:23:45.148Z,6.40
2024-05-09T04:28:47.501Z,6.38
2024-05-09T04:33:52.832Z,6.30
2024-05-09T04:38:55.209Z,6.30
2024-05-09T04:43:57.463Z,6.38
2024-05-09T04:48:59.722Z,6.55
2024-05-09T04:54:02.147Z,6.71
2024-05-09T04:59:09.874Z,6.97
2024-05-09T05:04:12.111Z,7.13
2024-05-09T05:09:14.300Z,7.28
2024-05-09T05:14:17.564Z,7.46
2024-05-09T05:19:19.732Z,7.74
2024-05-09T05:24:21.912Z,8.03
2024-05-09T05:29:23.937Z,8.30
2024-05-09T05:34:25.989Z,8.53
2024-05-09T05:39:30.571Z,8.85
2024-05-09T05:44:32.744Z,9.08
2024-05-09T05:49:34.973Z,9.40
2024-05-09T05:54:37.085Z,9.63
2024-05-09T05:59:42.245Z,10.31
2024-05-09T06:04:44.494Z,10.45
2024-05-09T06:09:48.299Z,10.43
2024-05-09T06:14:51.974Z,11.14
2024-05-09T06:19:54.414Z,10.84
2024-05-09T06:24:56.570Z,11.91
2024-05-09T06:29:58.647Z,12.01
2024-05-09T06:35:00.871Z,11.95
2024-05-09T06:40:17.362Z,12.86
2024-05-09T06:45:19.594Z,12.74
2024-05-09T06:50:24.403Z,13.34
2024-05-09T06:55:30.037Z,13.58
2024-05-09T07:00:38.600Z,13.46
2024-05-09T07:05:43.288Z,13.40
2024-05-09T07:10:48.529Z,14.31
2024-05-09T07:15:50.773Z,14.85
2024-05-09T07:20:54.799Z,14.21
2024-05-09T07:25:57.932Z,14.44
2024-05-09T07:31:00.021Z,14.47
2024-05-09T07:36:02.064Z,14.88
2024-05-09T07:41:04.295Z,15.12
2024-05-09T07:47:04.547Z,14.72
2024-05-09T07:56:33.590Z,15.76
2024-05-09T08:01:35.840Z,15.69
2024-05-09T08:06:38.077Z,15.68
2024-05-09T08:11:40.189Z,16.33
2024-05-09T08:16:42.215Z,16.09
2024-05-09T08:21:44.269Z,16.21
2024-05-09T08:26:46.291Z,16.54
2024-05-09T08:31:48.371Z,16.64
2024-05-09T08:36:50.503Z,17.12
2024-05-09T08:41:53.595Z,17.04
2024-05-09T08:46:57.647Z,16.85
2024-05-09T08:51:59.756Z,17.37
2024-05-09T08:57:04.427Z,17.50
2024-05-09T09:02:10.039Z,17.27
2024-05-09T09:07:12.921Z,17.34
2024-05-09T09:12:17.827Z,17.61
2024-05-09T09:17:19.890Z,18.48
2024-05-09T09:22:22.160Z,18.73
2024-05-09T09:27:24.299Z,18.84
2024-05-09T09:32:29.283Z,18.36
2024-05-09T09:37:32.364Z,18.74
2024-05-09T09:42:37.307Z,18.02
2024-05-09T09:47:41.575Z,18.88
2024-05-09T09:52:46.652Z,18.49
2024-05-09T09:57:52.980Z,19.20
2024-05-09T10:02:55.231Z,18.82
2024-05-09T10:07:58.870Z,19.47
2024-05-09T10:13:06.034Z,19.71
2024-05-09T10:18:08.653Z,19.56
2024-05-09T10:23:32.452Z,19.55
2024-05-09T10:28:42.202Z,19.26
2024-05-09T10:33:50.944Z,19.95
2024-05-09T10:38:55.540Z,20.17
2024-05-09T10:43:57.974Z,20.40
2024-05-09T10:49:03.337Z,20.71
2024-05-09T10:54:07.864Z,19.93
2024-05-09T10:59:12.647Z,19.94
2024-05-09T11:04:24.330Z,20.71
2024-05-09T11:09:56.279Z,20.72
2024-05-09T11:15:07.839Z,20.37
2024-05-09T11:20:22.879Z,20.25
2024-05-09T11:25:33.257Z,20.21
2024-05-09T11:30:35.477Z,21.16
2024-05-09T11:35:37.722Z,20.79
2024-05-09T11:40:40.103Z,20.22
2024-05-09T11:45:42.578Z,20.78
2024-05-09T11:50:47.389Z,20.51
2024-05-09T11:55:50.906Z,20.03
2024-05-09T12:00:53.207Z,19.90
2024-05-09T12:06:21.582Z,19.45
2024-05-09T12:11:24.048Z,19.65
2024-05-09T12:16:26.601Z,19.80
2024-05-09T12:21:32.768Z,20.08
2024-05-09T12:26:35.346Z,20.11
2024-05-09T12:31:40.295Z,20.10
2024-05-09T12:36:43.335Z,19.92
2024-05-09T12:41:50.931Z,20.28
2024-05-09T12:46:53.056Z,20.38
2024-05-09T12:58:54.392Z,19.84
2024-05-09T13:06:36.299Z,20.44
2024-05-09T13:12:05.453Z,19.83
2024-05-09T13:18:54.088Z,19.88
2024-05-09T16:23:21.192Z,19.12
2024-05-09T16:35:18.388Z,19.31
2024-05-09T16:40:34.323Z,19.43
2024-05-09T16:45:46.408Z,19.39
2024-05-09T16:50:52.740Z,19.31
2024-05-09T16:56:02.203Z,19.38
2024-05-09T17:01:14.818Z,19.75
2024-05-09T17:06:29.043Z,19.15
2024-05-09T17:11:36.081Z,19.11
2024-05-09T17:16:38.467Z,19.11
2024-05-09T17:21:45.127Z,19.14
2024-05-09T17:26:54.641Z,19.26
2024-05-09T17:32:00.058Z,18.72
2024-05-09T17:37:06.519Z,18.46
2024-05-09T17:42:14.637Z,18.73
2024-05-09T17:47:35.918Z,18.70
2024-05-09T17:58:25.791Z,18.25
2024-05-09T18:03:30.024Z,18.42
2024-05-09T18:08:35.480Z,18.46
2024-05-09T18:13:41.899Z,18.52
2024-05-09T18:18:44.115Z,18.35
2024-05-09T18:23:58.775Z,17.91
2024-05-09T18:29:03.215Z,17.78
2024-05-09T18:34:06.010Z,17.70
2024-05-09T18:39:08.882Z,17.57
2024-05-09T18:44:20.726Z,17.14
2024-05-09T18:49:25.797Z,16.83
2024-05-09T18:54:33.619Z,16.56
2024-05-09T18:59:38.910Z,16.64
2024-05-09T19:11:40.134Z,16.03
2024-05-09T19:16:45.174Z,15.76
2024-05-09T19:21:50.276Z,15.78
2024-05-09T19:26:52.789Z,15.41
2024-05-09T19:38:18.824Z,15.13
2024-05-09T19:44:03.307Z,14.89
2024-05-09T19:49:35.141Z,15.03
2024-05-09T20:06:58.315Z,14.93
2024-05-09T20:12:37.928Z,14.76
2024-05-09T20:24:14.457Z,14.56
2024-05-09T20:29:28.982Z,14.43
2024-05-09T20:48:48.623Z,14.27
2024-05-09T20:54:17.564Z,14.20
2024-05-09T20:59:52.955Z,14.17
2024-05-09T21:11:17.066Z,13.92
2024-05-09T21:36:21.162Z,13.50
2024-05-09T21:41:25.028Z,13.36
2024-05-09T21:51:49.786Z,13.35
2024-05-09T21:56:53.035Z,13.26
2024-05-09T22:02:01.751Z,13.24
2024-05-09T22:07:10.314Z,12.96
2024-05-09T22:12:13.078Z,12.82
2024-05-09T22:17:15.432Z,12.78
2024-05-09T22:22:17.635Z,12.68
2024-05-09T22:27:26.423Z,12.61
2024-05-09T22:32:29.531Z,12.52
2024-05-09T22:37:31.794Z,12.57
2024-05-09T22:42:34.019Z,12.41
2024-05-09T22:47:36.367Z,12.24
2024-05-09T22:52:40.013Z,12.27
2024-05-09T22:57:52.557Z,12.17
2024-05-09T23:02:54.921Z,12.14
2024-05-09T23:07:58.507Z,12.22
2024-05-09T23:13:03.479Z,12.13
2024-05-09T23:18:06.747Z,12.11
2024-05-09T23:23:12.102Z,11.92
2024-05-09T23:28:16.711Z,11.94
2024-05-09T23:33:23.277Z,11.77
2024-05-09T23:38:25.662Z,11.59
2024-05-09T23:43:30.252Z,11.64
2024-05-09T23:48:33.739Z,11.46
2024-05-09T23:58:52.023Z,11.23
